sensor_id;sensor_type;location;lat;lon;timestamp;temperature;humidity
18729;DHT22;9493;51.884;5.188;2023-01-09T00:01:41;7.10;99.90
18729;DHT22;9493;51.884;5.188;2023-01-09T00:04:09;7.10;99.90
18729;DHT22;9493;51.884;5.188;2023-01-09T00:06:36;7.00;99.90
18729;DHT22;9493;51.884;5.188;2023-01-09T00:09:05;6.90;99.90
18729;DHT22;9493;51.884;5.188;2023-01-09T00:11:32;7.00;99.90
18729;DHT22;9493;51.884;5.188;2023-01-09T00:13:59;6.90;99.90
18729;DHT22;9493;51.884;5.188;2023-01-09T00:16:26;7.00;99.90
18729;DHT22;9493;51.884;5.188;2023-01-09T00:18:54;6.80;99.90
18729;DHT22;9493;51.884;5.188;2023-01-09T00:21:21;6.90;99.90
18729;DHT22;9493;51.884;5.188;2023-01-09T00:23:48;6.80;99.90
18729;DHT22;9493;51.884;5.188;2023-01-09T00:26:17;6.80;99.90
18729;DHT22;9493;51.884;5.188;2023-01-09T00:28:44;6.80;99.90
18729;DHT22;9493;51.884;5.188;2023-01-09T00:31:12;6.80;99.90
18729;DHT22;9493;51.884;5.188;2023-01-09T00:33:41;6.80;99.90
18729;DHT22;9493;51.884;5.188;2023-01-09T00:36:10;6.70;99.90
18729;DHT22;9493;51.884;5.188;2023-01-09T00:38:37;6.70;99.90
18729;DHT22;9493;51.884;5.188;2023-01-09T00:41:07;6.60;99.90
18729;DHT22;9493;51.884;5.188;2023-01-09T00:43:40;6.60;99.90
18729;DHT22;9493;51.884;5.188;2023-01-09T00:46:09;6.50;99.90
18729;DHT22;9493;51.884;5.188;2023-01-09T00:48:38;6.50;99.90
18729;DHT22;9493;51.884;5.188;2023-01-09T00:51:06;6.50;99.90
18729;DHT22;9493;51.884;5.188;2023-01-09T00:53:36;6.40;99.90
18729;DHT22;9493;51.884;5.188;2023-01-09T00:56:07;6.30;99.90
18729;DHT22;9493;51.884;5.188;2023-01-09T00:58:36;6.30;99.90
18729;DHT22;9493;51.884;5.188;2023-01-09T01:01:03;6.30;99.90
18729;DHT22;9493;51.884;5.188;2023-01-09T01:03:30;6.30;99.90
18729;DHT22;9493;51.884;5.188;2023-01-09T01:05:57;6.20;99.90
18729;DHT22;9493;51.884;5.188;2023-01-09T01:08:43;6.20;99.90
18729;DHT22;9493;51.884;5.188;2023-01-09T01:11:11;6.20;99.90
18729;DHT22;9493;51.884;5.188;2023-01-09T01:13:39;6.10;99.90
18729;DHT22;9493;51.884;5.188;2023-01-09T01:16:08;6.10;99.90
18729;DHT22;9493;51.884;5.188;2023-01-09T01:18:35;6.10;99.90
18729;DHT22;9493;51.884;5.188;2023-01-09T01:21:05;6.10;99.90
18729;DHT22;9493;51.884;5.188;2023-01-09T01:23:32;6.10;99.90
18729;DHT22;9493;51.884;5.188;2023-01-09T01:26:04;6.00;99.90
18729;DHT22;9493;51.884;5.188;2023-01-09T01:28:31;6.10;99.90
18729;DHT22;9493;51.884;5.188;2023-01-09T01:30:58;6.00;99.90
18729;DHT22;9493;51.884;5.188;2023-01-09T01:33:25;6.10;99.90
18729;DHT22;9493;51.884;5.188;2023-01-09T01:35:58;6.00;99.90
18729;DHT22;9493;51.884;5.188;2023-01-09T01:38:25;6.00;99.90
18729;DHT22;9493;51.884;5.188;2023-01-09T01:40:52;5.90;99.90
18729;DHT22;9493;51.884;5.188;2023-01-09T01:43:21;6.00;99.90
18729;DHT22;9493;51.884;5.188;2023-01-09T01:45:47;6.00;99.90
18729;DHT22;9493;51.884;5.188;2023-01-09T01:48:16;6.00;99.90
18729;DHT22;9493;51.884;5.188;2023-01-09T01:50:49;6.00;99.90
18729;DHT22;9493;51.884;5.188;2023-01-09T01:53:19;6.00;99.90
18729;DHT22;9493;51.884;5.188;2023-01-09T01:55:55;6.10;99.90
18729;DHT22;9493;51.884;5.188;2023-01-09T01:58:26;6.10;99.90
18729;DHT22;9493;51.884;5.188;2023-01-09T02:00:53;6.10;99.90
18729;DHT22;9493;51.884;5.188;2023-01-09T02:03:23;6.10;99.90
18729;DHT22;9493;51.884;5.188;2023-01-09T02:05:51;6.10;99.90
18729;DHT22;9493;51.884;5.188;2023-01-09T02:08:18;6.20;99.90
18729;DHT22;9493;51.884;5.188;2023-01-09T02:10:47;6.00;99.90
18729;DHT22;9493;51.884;5.188;2023-01-09T02:13:14;6.00;99.90
18729;DHT22;9493;51.884;5.188;2023-01-09T02:16:08;6.00;99.90
18729;DHT22;9493;51.884;5.188;2023-01-09T02:18:46;6.00;99.90
18729;DHT22;9493;51.884;5.188;2023-01-09T02:21:22;5.90;99.90
18729;DHT22;9493;51.884;5.188;2023-01-09T02:24:41;5.90;99.90
18729;DHT22;9493;51.884;5.188;2023-01-09T02:27:39;5.90;99.90
18729;DHT22;9493;51.884;5.188;2023-01-09T02:30:31;5.90;99.90
18729;DHT22;9493;51.884;5.188;2023-01-09T02:33:19;5.90;99.90
18729;DHT22;9493;51.884;5.188;2023-01-09T02:36:06;5.70;99.90
18729;DHT22;9493;51.884;5.188;2023-01-09T02:38:40;5.70;99.90
18729;DHT22;9493;51.884;5.188;2023-01-09T02:41:13;5.70;99.90
18729;DHT22;9493;51.884;5.188;2023-01-09T02:43:42;5.80;99.90
18729;DHT22;9493;51.884;5.188;2023-01-09T02:46:18;5.70;99.90
18729;DHT22;9493;51.884;5.188;2023-01-09T02:48:45;5.70;99.90
18729;DHT22;9493;51.884;5.188;2023-01-09T02:51:20;5.70;99.90
18729;DHT22;9493;51.884;5.188;2023-01-09T02:53:58;5.70;99.90
18729;DHT22;9493;51.884;5.188;2023-01-09T02:56:46;5.60;99.90
18729;DHT22;9493;51.884;5.188;2023-01-09T02:59:22;5.60;99.90
18729;DHT22;9493;51.884;5.188;2023-01-09T03:02:10;5.60;99.90
18729;DHT22;9493;51.884;5.188;2023-01-09T03:04:45;5.60;99.90
18729;DHT22;9493;51.884;5.188;2023-01-09T03:07:22;5.60;99.90
18729;DHT22;9493;51.884;5.188;2023-01-09T03:09:55;5.60;99.90
18729;DHT22;9493;51.884;5.188;2023-01-09T03:12:26;5.50;99.90
18729;DHT22;9493;51.884;5.188;2023-01-09T03:14:57;5.60;99.90
18729;DHT22;9493;51.884;5.188;2023-01-09T03:17:31;5.50;99.90
18729;DHT22;9493;51.884;5.188;2023-01-09T03:20:00;5.60;99.90
18729;DHT22;9493;51.884;5.188;2023-01-09T03:22:28;5.60;99.90
18729;DHT22;9493;51.884;5.188;2023-01-09T03:24:55;5.50;99.90
18729;DHT22;9493;51.884;5.188;2023-01-09T03:27:22;5.50;99.90
18729;DHT22;9493;51.884;5.188;2023-01-09T03:29:49;5.60;99.90
18729;DHT22;9493;51.884;5.188;2023-01-09T03:32:17;5.40;99.90
18729;DHT22;9493;51.884;5.188;2023-01-09T03:34:45;5.50;99.90
18729;DHT22;9493;51.884;5.188;2023-01-09T03:37:12;5.40;99.90
18729;DHT22;9493;51.884;5.188;2023-01-09T03:39:39;5.40;99.90
18729;DHT22;9493;51.884;5.188;2023-01-09T03:42:07;5.60;99.90
18729;DHT22;9493;51.884;5.188;2023-01-09T03:44:34;5.30;99.90
18729;DHT22;9493;51.884;5.188;2023-01-09T03:47:01;5.30;99.90
18729;DHT22;9493;51.884;5.188;2023-01-09T03:49:28;5.30;99.90
18729;DHT22;9493;51.884;5.188;2023-01-09T03:51:56;5.30;99.90
18729;DHT22;9493;51.884;5.188;2023-01-09T03:54:23;5.40;99.90
18729;DHT22;9493;51.884;5.188;2023-01-09T03:56:50;5.30;99.90
18729;DHT22;9493;51.884;5.188;2023-01-09T03:59:16;5.30;99.90
18729;DHT22;9493;51.884;5.188;2023-01-09T04:01:43;5.40;99.90
18729;DHT22;9493;51.884;5.188;2023-01-09T04:04:10;5.40;99.90
18729;DHT22;9493;51.884;5.188;2023-01-09T04:06:37;5.30;99.90
18729;DHT22;9493;51.884;5.188;2023-01-09T04:09:05;5.40;99.90
18729;DHT22;9493;51.884;5.188;2023-01-09T04:11:32;5.30;99.90
18729;DHT22;9493;51.884;5.188;2023-01-09T04:13:59;5.30;99.90
18729;DHT22;9493;51.884;5.188;2023-01-09T04:16:26;5.40;99.90
18729;DHT22;9493;51.884;5.188;2023-01-09T04:18:52;5.40;99.90
18729;DHT22;9493;51.884;5.188;2023-01-09T04:21:19;5.40;99.90
18729;DHT22;9493;51.884;5.188;2023-01-09T04:23:46;5.40;99.90
18729;DHT22;9493;51.884;5.188;2023-01-09T04:26:14;5.50;99.90
18729;DHT22;9493;51.884;5.188;2023-01-09T04:28:41;5.70;99.90
18729;DHT22;9493;51.884;5.188;2023-01-09T04:31:08;5.50;99.90
18729;DHT22;9493;51.884;5.188;2023-01-09T04:33:34;5.80;99.90
18729;DHT22;9493;51.884;5.188;2023-01-09T04:36:01;5.60;99.90
18729;DHT22;9493;51.884;5.188;2023-01-09T04:38:28;5.70;99.90
18729;DHT22;9493;51.884;5.188;2023-01-09T04:40:55;5.70;99.90
18729;DHT22;9493;51.884;5.188;2023-01-09T04:43:23;5.80;99.90
18729;DHT22;9493;51.884;5.188;2023-01-09T04:45:50;5.80;99.90
18729;DHT22;9493;51.884;5.188;2023-01-09T04:48:17;5.80;99.90
18729;DHT22;9493;51.884;5.188;2023-01-09T04:50:44;6.10;99.90
18729;DHT22;9493;51.884;5.188;2023-01-09T04:53:11;6.10;99.90
18729;DHT22;9493;51.884;5.188;2023-01-09T04:55:38;5.90;99.90
18729;DHT22;9493;51.884;5.188;2023-01-09T04:58:05;5.90;99.90
18729;DHT22;9493;51.884;5.188;2023-01-09T05:00:33;5.90;99.90
18729;DHT22;9493;51.884;5.188;2023-01-09T05:03:00;6.00;99.90
18729;DHT22;9493;51.884;5.188;2023-01-09T05:05:28;5.90;99.90
18729;DHT22;9493;51.884;5.188;2023-01-09T05:07:55;6.00;99.90
18729;DHT22;9493;51.884;5.188;2023-01-09T05:10:21;5.90;99.90
18729;DHT22;9493;51.884;5.188;2023-01-09T05:12:48;5.90;99.90
18729;DHT22;9493;51.884;5.188;2023-01-09T05:15:17;5.80;99.90
18729;DHT22;9493;51.884;5.188;2023-01-09T05:17:45;5.90;99.90
18729;DHT22;9493;51.884;5.188;2023-01-09T05:20:12;5.80;99.90
18729;DHT22;9493;51.884;5.188;2023-01-09T05:22:39;5.90;99.90
18729;DHT22;9493;51.884;5.188;2023-01-09T05:25:06;5.80;99.90
18729;DHT22;9493;51.884;5.188;2023-01-09T05:27:33;5.80;99.90
18729;DHT22;9493;51.884;5.188;2023-01-09T05:30:00;5.80;99.90
18729;DHT22;9493;51.884;5.188;2023-01-09T05:32:26;5.80;99.90
18729;DHT22;9493;51.884;5.188;2023-01-09T05:34:54;5.90;99.90
18729;DHT22;9493;51.884;5.188;2023-01-09T05:37:21;6.00;99.90
18729;DHT22;9493;51.884;5.188;2023-01-09T05:39:48;6.00;99.90
18729;DHT22;9493;51.884;5.188;2023-01-09T05:42:15;6.00;99.90
18729;DHT22;9493;51.884;5.188;2023-01-09T05:44:42;6.00;99.90
18729;DHT22;9493;51.884;5.188;2023-01-09T05:47:08;6.10;99.90
18729;DHT22;9493;51.884;5.188;2023-01-09T05:49:35;6.10;99.90
18729;DHT22;9493;51.884;5.188;2023-01-09T05:52:04;6.20;99.90
18729;DHT22;9493;51.884;5.188;2023-01-09T05:54:32;6.30;99.90
18729;DHT22;9493;51.884;5.188;2023-01-09T05:56:59;6.30;99.90
18729;DHT22;9493;51.884;5.188;2023-01-09T05:59:25;6.30;99.90
18729;DHT22;9493;51.884;5.188;2023-01-09T06:01:52;6.30;99.90
18729;DHT22;9493;51.884;5.188;2023-01-09T06:04:19;6.60;99.90
18729;DHT22;9493;51.884;5.188;2023-01-09T06:06:46;6.40;99.90
18729;DHT22;9493;51.884;5.188;2023-01-09T06:09:14;6.40;99.90
18729;DHT22;9493;51.884;5.188;2023-01-09T06:11:41;6.40;99.90
18729;DHT22;9493;51.884;5.188;2023-01-09T06:14:08;6.50;99.90
18729;DHT22;9493;51.884;5.188;2023-01-09T06:16:34;6.50;99.90
18729;DHT22;9493;51.884;5.188;2023-01-09T06:19:01;6.50;99.90
18729;DHT22;9493;51.884;5.188;2023-01-09T06:21:29;6.60;99.90
18729;DHT22;9493;51.884;5.188;2023-01-09T06:23:56;6.60;99.90
18729;DHT22;9493;51.884;5.188;2023-01-09T06:26:24;6.60;99.90
18729;DHT22;9493;51.884;5.188;2023-01-09T06:28:52;6.70;99.90
18729;DHT22;9493;51.884;5.188;2023-01-09T06:31:20;6.70;99.90
18729;DHT22;9493;51.884;5.188;2023-01-09T06:33:47;6.60;99.90
18729;DHT22;9493;51.884;5.188;2023-01-09T06:36:14;6.60;99.90
18729;DHT22;9493;51.884;5.188;2023-01-09T06:38:41;6.60;99.90
18729;DHT22;9493;51.884;5.188;2023-01-09T06:41:07;6.60;99.90
18729;DHT22;9493;51.884;5.188;2023-01-09T06:43:36;6.60;99.90
18729;DHT22;9493;51.884;5.188;2023-01-09T06:46:03;6.60;99.90
18729;DHT22;9493;51.884;5.188;2023-01-09T06:48:30;6.60;99.90
18729;DHT22;9493;51.884;5.188;2023-01-09T06:50:57;6.50;99.90
18729;DHT22;9493;51.884;5.188;2023-01-09T06:53:24;6.60;99.90
18729;DHT22;9493;51.884;5.188;2023-01-09T06:55:51;6.60;99.90
18729;DHT22;9493;51.884;5.188;2023-01-09T06:58:18;6.70;99.90
18729;DHT22;9493;51.884;5.188;2023-01-09T07:00:46;6.70;99.90
18729;DHT22;9493;51.884;5.188;2023-01-09T07:03:13;6.70;99.90
18729;DHT22;9493;51.884;5.188;2023-01-09T07:05:44;6.80;99.90
18729;DHT22;9493;51.884;5.188;2023-01-09T07:08:12;6.80;99.90
18729;DHT22;9493;51.884;5.188;2023-01-09T07:10:39;6.80;99.90
18729;DHT22;9493;51.884;5.188;2023-01-09T07:13:06;6.80;99.90
18729;DHT22;9493;51.884;5.188;2023-01-09T07:15:33;6.80;99.90
18729;DHT22;9493;51.884;5.188;2023-01-09T07:18:01;6.80;99.90
18729;DHT22;9493;51.884;5.188;2023-01-09T07:20:28;6.80;99.90
18729;DHT22;9493;51.884;5.188;2023-01-09T07:22:55;6.80;99.90
18729;DHT22;9493;51.884;5.188;2023-01-09T07:25:22;7.00;99.90
18729;DHT22;9493;51.884;5.188;2023-01-09T07:27:49;6.80;99.90
18729;DHT22;9493;51.884;5.188;2023-01-09T07:30:16;6.90;99.90
18729;DHT22;9493;51.884;5.188;2023-01-09T07:32:43;6.90;99.90
18729;DHT22;9493;51.884;5.188;2023-01-09T07:35:11;6.80;99.90
18729;DHT22;9493;51.884;5.188;2023-01-09T07:37:40;6.80;99.90
18729;DHT22;9493;51.884;5.188;2023-01-09T07:40:08;6.80;99.90
18729;DHT22;9493;51.884;5.188;2023-01-09T07:42:35;6.80;99.90
18729;DHT22;9493;51.884;5.188;2023-01-09T07:45:02;7.10;99.90
18729;DHT22;9493;51.884;5.188;2023-01-09T07:47:29;6.80;99.90
18729;DHT22;9493;51.884;5.188;2023-01-09T07:49:56;6.80;99.90
18729;DHT22;9493;51.884;5.188;2023-01-09T07:52:24;6.80;99.90
18729;DHT22;9493;51.884;5.188;2023-01-09T07:54:52;6.80;99.90
18729;DHT22;9493;51.884;5.188;2023-01-09T07:57:19;6.70;99.90
18729;DHT22;9493;51.884;5.188;2023-01-09T07:59:45;6.70;99.90
18729;DHT22;9493;51.884;5.188;2023-01-09T08:02:12;6.70;99.90
18729;DHT22;9493;51.884;5.188;2023-01-09T08:04:39;6.70;99.90
18729;DHT22;9493;51.884;5.188;2023-01-09T08:07:06;6.80;99.90
18729;DHT22;9493;51.884;5.188;2023-01-09T08:09:34;6.70;99.90
18729;DHT22;9493;51.884;5.188;2023-01-09T08:12:00;6.70;99.90
18729;DHT22;9493;51.884;5.188;2023-01-09T08:14:28;6.80;99.90
18729;DHT22;9493;51.884;5.188;2023-01-09T08:16:55;6.80;99.90
18729;DHT22;9493;51.884;5.188;2023-01-09T08:19:22;6.80;99.90
18729;DHT22;9493;51.884;5.188;2023-01-09T08:21:49;6.80;99.90
18729;DHT22;9493;51.884;5.188;2023-01-09T08:24:15;6.80;99.90
18729;DHT22;9493;51.884;5.188;2023-01-09T08:26:43;6.80;99.90
18729;DHT22;9493;51.884;5.188;2023-01-09T08:29:10;6.80;99.90
18729;DHT22;9493;51.884;5.188;2023-01-09T08:31:37;6.80;99.90
18729;DHT22;9493;51.884;5.188;2023-01-09T08:34:04;6.80;99.90
18729;DHT22;9493;51.884;5.188;2023-01-09T08:36:31;6.80;99.90
18729;DHT22;9493;51.884;5.188;2023-01-09T08:38:58;6.80;99.90
18729;DHT22;9493;51.884;5.188;2023-01-09T08:41:24;6.80;99.90
18729;DHT22;9493;51.884;5.188;2023-01-09T08:44:10;6.80;99.90
18729;DHT22;9493;51.884;5.188;2023-01-09T08:46:54;6.90;99.90
18729;DHT22;9493;51.884;5.188;2023-01-09T08:49:34;6.90;99.90
18729;DHT22;9493;51.884;5.188;2023-01-09T08:52:02;6.90;99.90
18729;DHT22;9493;51.884;5.188;2023-01-09T08:54:29;6.90;99.90
18729;DHT22;9493;51.884;5.188;2023-01-09T08:56:56;6.90;99.90
18729;DHT22;9493;51.884;5.188;2023-01-09T08:59:24;6.90;99.90
18729;DHT22;9493;51.884;5.188;2023-01-09T09:01:51;6.90;99.90
18729;DHT22;9493;51.884;5.188;2023-01-09T09:04:18;6.90;99.90
18729;DHT22;9493;51.884;5.188;2023-01-09T09:06:44;7.00;99.90
18729;DHT22;9493;51.884;5.188;2023-01-09T09:09:11;7.00;99.90
18729;DHT22;9493;51.884;5.188;2023-01-09T09:11:38;7.00;99.90
18729;DHT22;9493;51.884;5.188;2023-01-09T09:14:05;7.10;99.90
18729;DHT22;9493;51.884;5.188;2023-01-09T09:16:53;7.00;99.90
18729;DHT22;9493;51.884;5.188;2023-01-09T09:19:20;7.00;99.90
18729;DHT22;9493;51.884;5.188;2023-01-09T09:21:47;7.00;99.90
18729;DHT22;9493;51.884;5.188;2023-01-09T09:24:13;7.00;99.90
18729;DHT22;9493;51.884;5.188;2023-01-09T09:26:40;7.10;99.90
18729;DHT22;9493;51.884;5.188;2023-01-09T09:29:07;7.10;99.90
18729;DHT22;9493;51.884;5.188;2023-01-09T09:31:35;7.10;99.90
18729;DHT22;9493;51.884;5.188;2023-01-09T09:34:03;7.10;99.90
18729;DHT22;9493;51.884;5.188;2023-01-09T09:36:30;7.20;99.90
18729;DHT22;9493;51.884;5.188;2023-01-09T09:38:57;7.20;99.90
18729;DHT22;9493;51.884;5.188;2023-01-09T09:41:33;7.20;99.90
18729;DHT22;9493;51.884;5.188;2023-01-09T09:44:36;7.30;99.90
18729;DHT22;9493;51.884;5.188;2023-01-09T09:47:21;7.30;99.90
18729;DHT22;9493;51.884;5.188;2023-01-09T09:49:59;7.40;99.90
18729;DHT22;9493;51.884;5.188;2023-01-09T09:52:35;7.40;99.90
18729;DHT22;9493;51.884;5.188;2023-01-09T09:55:13;7.40;99.90
18729;DHT22;9493;51.884;5.188;2023-01-09T09:57:41;7.50;99.90
18729;DHT22;9493;51.884;5.188;2023-01-09T10:00:14;7.60;99.90
18729;DHT22;9493;51.884;5.188;2023-01-09T10:02:45;8.20;99.90
18729;DHT22;9493;51.884;5.188;2023-01-09T10:05:19;8.20;99.90
18729;DHT22;9493;51.884;5.188;2023-01-09T10:07:48;7.90;99.90
18729;DHT22;9493;51.884;5.188;2023-01-09T10:10:24;7.80;99.90
18729;DHT22;9493;51.884;5.188;2023-01-09T10:12:53;7.70;99.90
18729;DHT22;9493;51.884;5.188;2023-01-09T10:15:30;7.70;99.90
18729;DHT22;9493;51.884;5.188;2023-01-09T10:18:11;7.60;99.90
18729;DHT22;9493;51.884;5.188;2023-01-09T10:20:56;7.60;99.90
18729;DHT22;9493;51.884;5.188;2023-01-09T10:23:48;7.60;99.90
18729;DHT22;9493;51.884;5.188;2023-01-09T10:26:22;7.50;99.90
18729;DHT22;9493;51.884;5.188;2023-01-09T10:29:06;7.50;99.90
18729;DHT22;9493;51.884;5.188;2023-01-09T10:31:42;7.50;99.90
18729;DHT22;9493;51.884;5.188;2023-01-09T10:34:22;7.50;99.90
18729;DHT22;9493;51.884;5.188;2023-01-09T10:37:03;7.50;99.90
18729;DHT22;9493;51.884;5.188;2023-01-09T10:39:34;7.60;99.90
18729;DHT22;9493;51.884;5.188;2023-01-09T10:42:09;7.70;99.90
18729;DHT22;9493;51.884;5.188;2023-01-09T10:44:43;7.70;99.90
18729;DHT22;9493;51.884;5.188;2023-01-09T10:47:15;7.80;99.90
18729;DHT22;9493;51.884;5.188;2023-01-09T10:49:44;7.80;99.90
18729;DHT22;9493;51.884;5.188;2023-01-09T10:52:15;7.90;99.90
18729;DHT22;9493;51.884;5.188;2023-01-09T10:54:48;7.90;99.90
18729;DHT22;9493;51.884;5.188;2023-01-09T10:57:26;7.90;99.90
18729;DHT22;9493;51.884;5.188;2023-01-09T10:59:59;7.80;99.90
18729;DHT22;9493;51.884;5.188;2023-01-09T11:02:28;7.80;99.90
18729;DHT22;9493;51.884;5.188;2023-01-09T11:04:56;7.80;99.90
18729;DHT22;9493;51.884;5.188;2023-01-09T11:07:27;7.90;99.90
18729;DHT22;9493;51.884;5.188;2023-01-09T11:09:57;7.90;99.90
18729;DHT22;9493;51.884;5.188;2023-01-09T11:12:26;8.00;99.90
18729;DHT22;9493;51.884;5.188;2023-01-09T11:14:53;8.00;99.90
18729;DHT22;9493;51.884;5.188;2023-01-09T11:17:21;8.00;99.90
18729;DHT22;9493;51.884;5.188;2023-01-09T11:20:00;8.00;99.90
18729;DHT22;9493;51.884;5.188;2023-01-09T11:22:28;8.00;99.90
18729;DHT22;9493;51.884;5.188;2023-01-09T11:25:11;8.00;99.90
18729;DHT22;9493;51.884;5.188;2023-01-09T11:27:38;8.00;99.90
18729;DHT22;9493;51.884;5.188;2023-01-09T11:30:17;8.10;99.90
18729;DHT22;9493;51.884;5.188;2023-01-09T11:32:50;8.10;99.90
18729;DHT22;9493;51.884;5.188;2023-01-09T11:35:20;8.10;99.90
18729;DHT22;9493;51.884;5.188;2023-01-09T11:38:07;8.10;99.90
18729;DHT22;9493;51.884;5.188;2023-01-09T11:40:45;8.20;99.90
18729;DHT22;9493;51.884;5.188;2023-01-09T11:43:17;8.40;99.90
18729;DHT22;9493;51.884;5.188;2023-01-09T11:45:48;8.40;99.90
18729;DHT22;9493;51.884;5.188;2023-01-09T11:48:21;8.40;99.90
18729;DHT22;9493;51.884;5.188;2023-01-09T11:50:54;8.40;99.90
18729;DHT22;9493;51.884;5.188;2023-01-09T11:53:23;8.50;99.90
18729;DHT22;9493;51.884;5.188;2023-01-09T11:55:56;8.40;99.90
18729;DHT22;9493;51.884;5.188;2023-01-09T11:58:23;8.40;99.90
18729;DHT22;9493;51.884;5.188;2023-01-09T12:00:56;8.40;99.90
18729;DHT22;9493;51.884;5.188;2023-01-09T12:03:41;8.40;99.90
18729;DHT22;9493;51.884;5.188;2023-01-09T12:06:19;8.30;99.90
18729;DHT22;9493;51.884;5.188;2023-01-09T12:08:55;8.30;99.90
18729;DHT22;9493;51.884;5.188;2023-01-09T12:11:29;8.30;99.90
18729;DHT22;9493;51.884;5.188;2023-01-09T12:14:21;8.30;99.90
18729;DHT22;9493;51.884;5.188;2023-01-09T12:17:03;8.50;99.90
18729;DHT22;9493;51.884;5.188;2023-01-09T12:19:52;8.70;99.90
18729;DHT22;9493;51.884;5.188;2023-01-09T12:22:29;8.80;99.90
18729;DHT22;9493;51.884;5.188;2023-01-09T12:25:16;8.80;99.90
18729;DHT22;9493;51.884;5.188;2023-01-09T12:27:54;8.70;99.90
18729;DHT22;9493;51.884;5.188;2023-01-09T12:30:32;8.70;99.90
18729;DHT22;9493;51.884;5.188;2023-01-09T12:33:11;8.60;99.90
18729;DHT22;9493;51.884;5.188;2023-01-09T12:35:45;8.50;99.90
18729;DHT22;9493;51.884;5.188;2023-01-09T12:38:21;8.50;99.90
18729;DHT22;9493;51.884;5.188;2023-01-09T12:44:07;8.40;99.90
18729;DHT22;9493;51.884;5.188;2023-01-09T12:46:43;8.30;99.90
18729;DHT22;9493;51.884;5.188;2023-01-09T12:49:25;8.20;99.90
18729;DHT22;9493;51.884;5.188;2023-01-09T12:51:58;8.20;99.90
18729;DHT22;9493;51.884;5.188;2023-01-09T12:54:32;8.10;99.90
18729;DHT22;9493;51.884;5.188;2023-01-09T12:57:05;8.10;99.90
18729;DHT22;9493;51.884;5.188;2023-01-09T12:59:39;8.00;99.90
18729;DHT22;9493;51.884;5.188;2023-01-09T13:02:15;7.80;99.90
18729;DHT22;9493;51.884;5.188;2023-01-09T13:04:50;7.70;99.90
18729;DHT22;9493;51.884;5.188;2023-01-09T13:07:23;7.60;99.90
18729;DHT22;9493;51.884;5.188;2023-01-09T13:09:55;7.50;99.90
18729;DHT22;9493;51.884;5.188;2023-01-09T13:12:26;7.50;99.90
18729;DHT22;9493;51.884;5.188;2023-01-09T13:14:59;7.50;99.90
18729;DHT22;9493;51.884;5.188;2023-01-09T13:17:31;7.60;99.90
18729;DHT22;9493;51.884;5.188;2023-01-09T13:20:03;7.80;99.90
18729;DHT22;9493;51.884;5.188;2023-01-09T13:22:30;7.90;99.90
18729;DHT22;9493;51.884;5.188;2023-01-09T13:25:15;7.90;99.90
18729;DHT22;9493;51.884;5.188;2023-01-09T13:27:53;7.90;99.90
18729;DHT22;9493;51.884;5.188;2023-01-09T13:30:32;7.90;99.90
18729;DHT22;9493;51.884;5.188;2023-01-09T13:33:13;8.00;99.90
18729;DHT22;9493;51.884;5.188;2023-01-09T13:35:47;8.00;99.90
18729;DHT22;9493;51.884;5.188;2023-01-09T13:38:17;8.10;99.90
18729;DHT22;9493;51.884;5.188;2023-01-09T13:40:44;8.10;99.90
18729;DHT22;9493;51.884;5.188;2023-01-09T13:43:12;8.10;99.90
18729;DHT22;9493;51.884;5.188;2023-01-09T13:45:41;8.10;99.90
18729;DHT22;9493;51.884;5.188;2023-01-09T13:48:27;8.40;99.90
18729;DHT22;9493;51.884;5.188;2023-01-09T13:53:51;9.20;99.90
18729;DHT22;9493;51.884;5.188;2023-01-09T13:56:17;9.40;99.90
18729;DHT22;9493;51.884;5.188;2023-01-09T13:59:01;9.70;99.90
18729;DHT22;9493;51.884;5.188;2023-01-09T14:01:44;9.80;99.90
18729;DHT22;9493;51.884;5.188;2023-01-09T14:07:21;9.60;99.90
18729;DHT22;9493;51.884;5.188;2023-01-09T14:09:55;9.40;99.90
18729;DHT22;9493;51.884;5.188;2023-01-09T14:12:23;9.80;99.90
18729;DHT22;9493;51.884;5.188;2023-01-09T14:14:53;10.00;99.90
18729;DHT22;9493;51.884;5.188;2023-01-09T14:17:30;9.80;99.90
18729;DHT22;9493;51.884;5.188;2023-01-09T14:19:59;9.50;99.90
18729;DHT22;9493;51.884;5.188;2023-01-09T14:22:29;9.10;99.90
18729;DHT22;9493;51.884;5.188;2023-01-09T14:25:04;8.90;99.90
18729;DHT22;9493;51.884;5.188;2023-01-09T14:28:03;8.80;99.90
18729;DHT22;9493;51.884;5.188;2023-01-09T14:30:36;8.60;99.90
18729;DHT22;9493;51.884;5.188;2023-01-09T14:33:04;8.50;99.90
18729;DHT22;9493;51.884;5.188;2023-01-09T14:35:53;8.50;99.90
18729;DHT22;9493;51.884;5.188;2023-01-09T14:38:31;8.40;99.90
18729;DHT22;9493;51.884;5.188;2023-01-09T14:41:04;8.40;99.90
18729;DHT22;9493;51.884;5.188;2023-01-09T14:43:47;8.30;99.90
18729;DHT22;9493;51.884;5.188;2023-01-09T14:46:19;8.40;99.90
18729;DHT22;9493;51.884;5.188;2023-01-09T14:49:01;8.30;99.90
18729;DHT22;9493;51.884;5.188;2023-01-09T14:51:31;8.30;99.90
18729;DHT22;9493;51.884;5.188;2023-01-09T14:54:04;8.30;99.90
18729;DHT22;9493;51.884;5.188;2023-01-09T14:56:43;8.30;99.90
18729;DHT22;9493;51.884;5.188;2023-01-09T14:59:11;8.30;99.90
18729;DHT22;9493;51.884;5.188;2023-01-09T15:01:42;8.30;99.90
18729;DHT22;9493;51.884;5.188;2023-01-09T15:04:20;8.30;99.90
18729;DHT22;9493;51.884;5.188;2023-01-09T15:06:49;8.20;99.90
18729;DHT22;9493;51.884;5.188;2023-01-09T15:09:20;8.20;99.90
18729;DHT22;9493;51.884;5.188;2023-01-09T15:11:48;8.20;99.90
18729;DHT22;9493;51.884;5.188;2023-01-09T15:14:24;8.20;99.90
18729;DHT22;9493;51.884;5.188;2023-01-09T15:16:54;8.20;99.90
18729;DHT22;9493;51.884;5.188;2023-01-09T15:19:21;8.10;99.90
18729;DHT22;9493;51.884;5.188;2023-01-09T15:21:59;8.10;99.90
18729;DHT22;9493;51.884;5.188;2023-01-09T15:24:28;8.10;99.90
18729;DHT22;9493;51.884;5.188;2023-01-09T15:26:58;8.00;99.90
18729;DHT22;9493;51.884;5.188;2023-01-09T15:29:26;8.00;99.90
18729;DHT22;9493;51.884;5.188;2023-01-09T15:31:59;8.00;99.90
18729;DHT22;9493;51.884;5.188;2023-01-09T15:34:26;8.00;99.90
18729;DHT22;9493;51.884;5.188;2023-01-09T15:36:54;8.00;99.90
18729;DHT22;9493;51.884;5.188;2023-01-09T15:39:23;8.00;99.90
18729;DHT22;9493;51.884;5.188;2023-01-09T15:41:51;8.00;99.90
18729;DHT22;9493;51.884;5.188;2023-01-09T15:44:37;7.90;99.90
18729;DHT22;9493;51.884;5.188;2023-01-09T15:47:09;7.90;99.90
18729;DHT22;9493;51.884;5.188;2023-01-09T15:49:37;7.90;99.90
18729;DHT22;9493;51.884;5.188;2023-01-09T15:52:04;7.80;99.90
18729;DHT22;9493;51.884;5.188;2023-01-09T15:54:36;7.80;99.90
18729;DHT22;9493;51.884;5.188;2023-01-09T15:57:29;7.70;99.90
18729;DHT22;9493;51.884;5.188;2023-01-09T16:00:30;7.70;99.90
18729;DHT22;9493;51.884;5.188;2023-01-09T16:02:59;7.60;99.90
18729;DHT22;9493;51.884;5.188;2023-01-09T16:05:38;7.70;99.90
18729;DHT22;9493;51.884;5.188;2023-01-09T16:08:20;7.60;99.90
18729;DHT22;9493;51.884;5.188;2023-01-09T16:10:50;7.60;99.90
18729;DHT22;9493;51.884;5.188;2023-01-09T16:13:18;7.60;99.90
18729;DHT22;9493;51.884;5.188;2023-01-09T16:15:46;7.50;99.90
18729;DHT22;9493;51.884;5.188;2023-01-09T16:18:21;7.50;99.90
18729;DHT22;9493;51.884;5.188;2023-01-09T16:20:48;7.50;99.90
18729;DHT22;9493;51.884;5.188;2023-01-09T16:23:29;7.50;99.90
18729;DHT22;9493;51.884;5.188;2023-01-09T16:26:02;7.50;99.90
18729;DHT22;9493;51.884;5.188;2023-01-09T16:28:29;7.50;99.90
18729;DHT22;9493;51.884;5.188;2023-01-09T16:30:58;7.50;99.90
18729;DHT22;9493;51.884;5.188;2023-01-09T16:33:29;7.50;99.90
18729;DHT22;9493;51.884;5.188;2023-01-09T16:35:56;7.50;99.90
18729;DHT22;9493;51.884;5.188;2023-01-09T16:38:24;7.50;99.90